Monroe, WI (53566)

3:25 AM CDT on September 04, 2015 (GMT -0500)
ValleyViewVet | | Change Station
CLOSE
Current Station
Personal Weather Station
Location: Monroe, WI
Elevation: 1060 ft
Nearby Weather Stations

Elev 1060 ft 42.59 °N, 89.66 °W | Updated 6 seconds ago

Clear
Clear
68.5 °F
Feels Like 68.5 °F
N
0.9
Wind Variable Wind from ESE
Gusts 4.0 mph

Today
High -- | Low -- °F
--% Chance of Precip.
Yesterday
High -- | Low -- °F
Precip. -- in
6:26 AM 7:28 PM
Waning Gibbous, 62% visible
Pressure 29.99 in
Visibility 5.0 miles
Clouds Clear
Dew Point 67 °F
Humidity 95%
Rainfall 0.00 in
Snow Depth Not available.
UV 0 out of 12
Pollen 6.50 out of 12
Air Quality Not available.
Flu Activity Not available.
METAR KEFT 040815Z AUTO 08003KT 5SM BR CLR 20/19 A2999 RMK AO2
Pressure 29.99 in
Visibility 5.0 miles
Clouds Clear
Dew Point 67 °F
Humidity 95%
Rainfall 0.00 in
Snow Depth Not available.
UV 0 out of 12
Pollen 6.50 out of 12
Air Quality Not available.
Flu Activity Not available.
METAR KEFT 040815Z AUTO 08003KT 5SM BR CLR 20/19 A2999 RMK AO2

10-Day Weather Forecast

×

Almanac

Astronomy

Sep. 04, 2015 Rise Set
Actual Time
Civil Twilight
Nautical Twilight
Astronomical Twilight
Moon
Length of Visible Light
Length of Day
Tomorrow will be .
, % of the Moon is Illuminated

Today's Extremes

State Highs State Lows

Community

WunderPhotos

Upload Photos

1,852,141 photos uploaded!

WunderBlogs® & News

Nearby

Air Quality

  Air Quality AQ Index Pollutant
Not available.

Snow Depth

Station Depth Elevation

Earthquake Activity

City Distance Mag. Time & Date
Minimum magnitude displayed is 2.5.

Coastal Water Temperatures

Place Temperature

Stations

Nearby Weather Stations

Station Location Temp. Windchill Dew Point Humidity Wind Precip. Elev Updated Type